This is the latest recevied weather packets stored in our database for station/object ESUT. If no packets are shown the sender has not sent any weather packets the latest 10 day(s).
| Time | Temp. | Humidity | Pressure | Rain* | Wind** | Luminosity | Snow |
|---|---|---|---|---|---|---|---|
| 1777631588 | 6.67° C | 75% | 1014 hPa | - | - | - | - |
| 1777629788 | 7.78° C | 70% | 1014 hPa | - | - | - | - |
| 1777627987 | 6.67° C | 75% | 1014 hPa | - | - | - | - |
| 1777626188 | 5.56° C | 75% | 1014 hPa | - | - | - | - |
| 1777624388 | 5.56° C | 75% | 1015 hPa | - | - | - | - |
| 1777622588 | 5° C | 75% | 1015 hPa | - | - | - | - |
| 1777620787 | 5° C | 75% | 1015 hPa | - | - | - | - |
| 1777618987 | 5° C | 75% | 1015 hPa | - | - | - | - |
| 1777617187 | 5° C | 70% | 1015 hPa | - | - | - | - |
| 1777615387 | 5° C | 70% | 1015 hPa | - | - | - | - |
| 1777613589 | 5° C | 70% | 1015 hPa | - | - | - | - |
| 1777611787 | 5° C | 70% | 1015 hPa | - | - | - | - |
| 1777609987 | 5° C | 75% | 1016 hPa | - | - | - | - |
| 1777608188 | 2.78° C | 80% | 1016 hPa | - | - | - | - |
| 1777606387 | 5° C | 70% | 1016 hPa | - | - | - | - |
| 1777604587 | 5° C | 70% | 1016 hPa | - | - | - | - |
| 1777602788 | 3.89° C | 69% | 1017 hPa | - | - | - | - |
| 1777600987 | 0.56° C | 86% | 1017 hPa | - | - | - | - |
| 1777599187 | 2.78° C | 69% | 1017 hPa | - | - | - | - |
| 1777597387 | 1.67° C | 80% | 1018 hPa | - | - | - | - |
| 1777595588 | -1.11° C | 10% | - | - | - | - | - |
| 1777593787 | 1.67° C | 10% | - | - | - | - | - |
| 1777591987 | 1.67° C | 10% | - | - | - | - | - |
| 1777590187 | 3.89° C | 93% | 1019 hPa | - | - | - | - |
| 1777588387 | 5° C | 93% | 1019 hPa | - | - | - | - |
* Rain since midnight (hover to see other rain measurements)
** Current wind speed in m/s (hover to see current wind gust speed)